SDM601 URWW-UWKD
Flight info
| Callsign | SDM601 |
|---|---|
| Flight time | 1h 30m |
| Altitude | 35000 |
| Route | RODUN1E RODUN R807 UROBO P135 DAFOS T789 SONUM SONUM1S |
| Aircraft | A320/M-SDE3FGHIRWY/LB1 |
Departure
| Time | 2026-05-07 17:17 |
|---|---|
| Airport | Volgograd International Airport (URWW) |
Arrival
| Time | 2026-05-07 18:47 |
|---|---|
| Airport | Kazan International Airport (UWKD) |
| Time | Latitude | Longitude | Altitude | Speed | Heading |
|---|---|---|---|---|---|
| 2026-05-07 16:40 | 48.79051 | 44.35391 | 476 ft | 0 kts | 340° |
| 2026-05-07 17:01 | 48.79043 | 44.35396 | 485 ft | 2 kts | 336° |
| 2026-05-07 17:01 | 48.79028 | 44.35405 | 477 ft | 2 kts | 332° |
| 2026-05-07 17:01 | 48.79014 | 44.35417 | 479 ft | 2 kts | 324° |
| 2026-05-07 17:02 | 48.79002 | 44.35434 | 476 ft | 2 kts | 273° |
| 2026-05-07 17:02 | 48.79003 | 44.35452 | 476 ft | 1 kts | 244° |
| 2026-05-07 17:02 | 48.79004 | 44.35453 | 476 ft | 0 kts | 243° |
| 2026-05-07 17:06 | 48.79003 | 44.35450 | 476 ft | 2 kts | 244° |
| 2026-05-07 17:06 | 48.78997 | 44.35429 | 476 ft | 6 kts | 248° |
| 2026-05-07 17:06 | 48.78973 | 44.35329 | 483 ft | 11 kts | 249° |
| 2026-05-07 17:07 | 48.78946 | 44.35224 | 484 ft | 11 kts | 249° |
| 2026-05-07 17:07 | 48.78912 | 44.35121 | 486 ft | 11 kts | 218° |
| 2026-05-07 17:07 | 48.78843 | 44.35132 | 478 ft | 9 kts | 161° |
| 2026-05-07 17:07 | 48.78786 | 44.35160 | 483 ft | 8 kts | 163° |
| 2026-05-07 17:08 | 48.78750 | 44.35177 | 481 ft | 0 kts | 161° |
| 2026-05-07 17:11 | 48.78741 | 44.35182 | 481 ft | 9 kts | 161° |
| 2026-05-07 17:11 | 48.78698 | 44.35204 | 486 ft | 0 kts | 161° |
| 2026-05-07 17:13 | 48.78696 | 44.35205 | 486 ft | 4 kts | 160° |
| 2026-05-07 17:14 | 48.78586 | 44.35250 | 481 ft | 19 kts | 190° |
| 2026-05-07 17:14 | 48.78547 | 44.35199 | 484 ft | 0 kts | 242° |
| 2026-05-07 17:16 | 48.78546 | 44.35199 | 484 ft | 1 kts | 242° |
| 2026-05-07 17:16 | 48.78476 | 44.34977 | 481 ft | 60 kts | 244° |
| 2026-05-07 17:16 | 48.78198 | 44.34105 | 475 ft | 124 kts | 244° |
| 2026-05-07 17:16 | 48.77755 | 44.32709 | 646 ft | 156 kts | 244° |
| 2026-05-07 17:17 | 48.77272 | 44.31243 | 1304 ft | 156 kts | 245° |
| 2026-05-07 17:17 | 48.76791 | 44.29768 | 1987 ft | 156 kts | 247° |
| 2026-05-07 17:17 | 48.76313 | 44.28250 | 2473 ft | 168 kts | 248° |
| 2026-05-07 17:17 | 48.75781 | 44.26545 | 2772 ft | 191 kts | 248° |
| 2026-05-07 17:18 | 48.75178 | 44.24621 | 3068 ft | 214 kts | 247° |
| 2026-05-07 17:18 | 48.74588 | 44.22462 | 3417 ft | 232 kts | 262° |
| 2026-05-07 17:18 | 48.74843 | 44.20068 | 3956 ft | 237 kts | 302° |
| 2026-05-07 17:18 | 48.76071 | 44.18438 | 4601 ft | 245 kts | 339° |
| 2026-05-07 17:19 | 48.77797 | 44.18266 | 5183 ft | 259 kts | 16° |
| 2026-05-07 17:19 | 48.79389 | 44.19594 | 6056 ft | 265 kts | 36° |
| 2026-05-07 17:19 | 48.80776 | 44.21448 | 6993 ft | 267 kts | 41° |
| 2026-05-07 17:19 | 48.82129 | 44.23385 | 7885 ft | 268 kts | 40° |
| 2026-05-07 17:20 | 48.83531 | 44.25278 | 8753 ft | 271 kts | 38° |
| 2026-05-07 17:20 | 48.85001 | 44.27096 | 9630 ft | 274 kts | 36° |
| 2026-05-07 17:20 | 48.86533 | 44.28853 | 10339 ft | 282 kts | 34° |
| 2026-05-07 17:20 | 48.88196 | 44.30664 | 10598 ft | 306 kts | 33° |
| 2026-05-07 17:21 | 48.89993 | 44.32556 | 11049 ft | 320 kts | 33° |
| 2026-05-07 17:21 | 48.91844 | 44.34475 | 11770 ft | 324 kts | 33° |
| 2026-05-07 17:21 | 48.93718 | 44.36409 | 12549 ft | 327 kts | 33° |
| 2026-05-07 17:21 | 48.95611 | 44.38364 | 13326 ft | 330 kts | 33° |
| 2026-05-07 17:22 | 48.97515 | 44.40339 | 14050 ft | 333 kts | 33° |
| 2026-05-07 17:22 | 48.99440 | 44.42337 | 14691 ft | 337 kts | 33° |
| 2026-05-07 17:22 | 49.01385 | 44.44361 | 15337 ft | 340 kts | 33° |
| 2026-05-07 17:22 | 49.03345 | 44.46408 | 15966 ft | 344 kts | 33° |
| 2026-05-07 17:23 | 49.05332 | 44.48488 | 16592 ft | 348 kts | 33° |
| 2026-05-07 17:23 | 49.07340 | 44.50587 | 16902 ft | 351 kts | 33° |
| 2026-05-07 17:23 | 49.09353 | 44.52691 | 16970 ft | 351 kts | 33° |
| 2026-05-07 17:23 | 49.11374 | 44.54806 | 17257 ft | 354 kts | 33° |
| 2026-05-07 17:24 | 49.13410 | 44.56940 | 17956 ft | 356 kts | 33° |
| 2026-05-07 17:24 | 49.15458 | 44.59091 | 18558 ft | 359 kts | 33° |
| 2026-05-07 17:24 | 49.17525 | 44.61265 | 19114 ft | 362 kts | 33° |
| 2026-05-07 17:24 | 49.19607 | 44.63457 | 19653 ft | 365 kts | 33° |
| 2026-05-07 17:25 | 49.21710 | 44.65670 | 20199 ft | 369 kts | 33° |
| 2026-05-07 17:25 | 49.23835 | 44.67903 | 20732 ft | 372 kts | 33° |
| 2026-05-07 17:25 | 49.25975 | 44.70149 | 20923 ft | 373 kts | 33° |
| 2026-05-07 17:25 | 49.28118 | 44.72403 | 21005 ft | 375 kts | 34° |
| 2026-05-07 17:26 | 49.30270 | 44.74673 | 21568 ft | 377 kts | 34° |
| 2026-05-07 17:26 | 49.32440 | 44.76966 | 22134 ft | 380 kts | 34° |
| 2026-05-07 17:26 | 49.34621 | 44.79273 | 22675 ft | 383 kts | 34° |
| 2026-05-07 17:26 | 49.36820 | 44.81606 | 23197 ft | 386 kts | 34° |
| 2026-05-07 17:27 | 49.39034 | 44.83960 | 23673 ft | 389 kts | 34° |
| 2026-05-07 17:27 | 49.41263 | 44.86338 | 24086 ft | 392 kts | 34° |
| 2026-05-07 17:27 | 49.43508 | 44.88738 | 24493 ft | 394 kts | 34° |
| 2026-05-07 17:27 | 49.45768 | 44.91152 | 24888 ft | 397 kts | 34° |
| 2026-05-07 17:28 | 49.48046 | 44.93585 | 25275 ft | 400 kts | 34° |
| 2026-05-07 17:28 | 49.50334 | 44.96032 | 25656 ft | 402 kts | 34° |
| 2026-05-07 17:28 | 49.52643 | 44.98500 | 26031 ft | 405 kts | 34° |
| 2026-05-07 17:28 | 49.54960 | 45.00980 | 26400 ft | 407 kts | 34° |
| 2026-05-07 17:29 | 49.57298 | 45.03483 | 26765 ft | 410 kts | 34° |
| 2026-05-07 17:29 | 49.59645 | 45.05998 | 27132 ft | 412 kts | 34° |
| 2026-05-07 17:29 | 49.62007 | 45.08536 | 27475 ft | 415 kts | 34° |
| 2026-05-07 17:29 | 49.64383 | 45.11091 | 27830 ft | 417 kts | 34° |
| 2026-05-07 17:30 | 49.66876 | 45.13392 | 28180 ft | 420 kts | 26° |
| 2026-05-07 17:30 | 49.69598 | 45.15049 | 28506 ft | 422 kts | 17° |
| 2026-05-07 17:30 | 49.72436 | 45.16283 | 28831 ft | 425 kts | 16° |
| 2026-05-07 17:30 | 49.75287 | 45.17526 | 29143 ft | 427 kts | 16° |
| 2026-05-07 17:31 | 49.78159 | 45.18782 | 29455 ft | 429 kts | 16° |
| 2026-05-07 17:31 | 49.81040 | 45.20045 | 29748 ft | 431 kts | 16° |
| 2026-05-07 17:31 | 49.83935 | 45.21318 | 30037 ft | 433 kts | 16° |
| 2026-05-07 17:31 | 49.86841 | 45.22597 | 30284 ft | 435 kts | 16° |
| 2026-05-07 17:32 | 49.89760 | 45.23882 | 30519 ft | 437 kts | 16° |
| 2026-05-07 17:32 | 49.92697 | 45.25172 | 30740 ft | 439 kts | 16° |
| 2026-05-07 17:32 | 49.95639 | 45.26470 | 30962 ft | 441 kts | 16° |
| 2026-05-07 17:32 | 49.98593 | 45.27778 | 31186 ft | 442 kts | 16° |
| 2026-05-07 17:33 | 50.01548 | 45.29088 | 31493 ft | 441 kts | 16° |
| 2026-05-07 17:33 | 50.04555 | 45.30312 | 31807 ft | 440 kts | 14° |
| 2026-05-07 17:33 | 50.07544 | 45.31374 | 32126 ft | 440 kts | 12° |
| 2026-05-07 17:33 | 50.10535 | 45.32338 | 32439 ft | 439 kts | 12° |
| 2026-05-07 17:34 | 50.13527 | 45.33269 | 32749 ft | 438 kts | 12° |
| 2026-05-07 17:34 | 50.16521 | 45.34211 | 32924 ft | 439 kts | 12° |
| 2026-05-07 17:34 | 50.22495 | 45.36181 | 32946 ft | 439 kts | 12° |
| 2026-05-07 17:35 | 50.28413 | 45.38226 | 32953 ft | 439 kts | 13° |
| 2026-05-07 17:35 | 50.34368 | 45.40311 | 32951 ft | 439 kts | 13° |
| 2026-05-07 17:36 | 50.40326 | 45.42370 | 32952 ft | 438 kts | 12° |
| 2026-05-07 17:36 | 50.46287 | 45.44409 | 32951 ft | 439 kts | 12° |
| 2026-05-07 17:37 | 50.52253 | 45.46459 | 32949 ft | 439 kts | 12° |
| 2026-05-07 17:37 | 50.58206 | 45.48515 | 32955 ft | 437 kts | 12° |
| 2026-05-07 17:38 | 50.64184 | 45.50586 | 32950 ft | 437 kts | 13° |
| 2026-05-07 17:38 | 50.70114 | 45.52657 | 32950 ft | 436 kts | 13° |
| 2026-05-07 17:39 | 50.76054 | 45.54734 | 32953 ft | 437 kts | 13° |
| 2026-05-07 17:39 | 50.81995 | 45.56830 | 32947 ft | 437 kts | 13° |
| 2026-05-07 17:40 | 50.87933 | 45.58961 | 32948 ft | 437 kts | 13° |
| 2026-05-07 17:40 | 50.93872 | 45.61105 | 32935 ft | 438 kts | 13° |
| 2026-05-07 17:41 | 50.99801 | 45.63238 | 32948 ft | 437 kts | 13° |
| 2026-05-07 17:41 | 51.05560 | 45.66221 | 32948 ft | 437 kts | 25° |
| 2026-05-07 17:42 | 51.11062 | 45.70350 | 32945 ft | 437 kts | 25° |
| 2026-05-07 17:42 | 51.16562 | 45.74491 | 32942 ft | 437 kts | 25° |
| 2026-05-07 17:43 | 51.22061 | 45.78634 | 32948 ft | 437 kts | 25° |
| 2026-05-07 17:43 | 51.27571 | 45.82779 | 32941 ft | 438 kts | 25° |
| 2026-05-07 17:44 | 51.33087 | 45.86942 | 32938 ft | 438 kts | 25° |
| 2026-05-07 17:44 | 51.38603 | 45.91121 | 32940 ft | 439 kts | 25° |
| 2026-05-07 17:45 | 51.44116 | 45.95309 | 32942 ft | 438 kts | 25° |
| 2026-05-07 17:45 | 51.49620 | 45.99504 | 32943 ft | 438 kts | 25° |
| 2026-05-07 17:46 | 51.55125 | 46.03724 | 32943 ft | 438 kts | 25° |
| 2026-05-07 17:46 | 51.60601 | 46.08040 | 32946 ft | 438 kts | 26° |
| 2026-05-07 17:47 | 51.66021 | 46.12551 | 32948 ft | 438 kts | 27° |
| 2026-05-07 17:47 | 51.71431 | 46.17086 | 32954 ft | 438 kts | 27° |
| 2026-05-07 17:48 | 51.76863 | 46.21578 | 32948 ft | 439 kts | 27° |
| 2026-05-07 17:48 | 51.82301 | 46.26079 | 32945 ft | 439 kts | 27° |
| 2026-05-07 17:49 | 51.87737 | 46.30586 | 32948 ft | 439 kts | 27° |
| 2026-05-07 17:49 | 51.93167 | 46.35114 | 32945 ft | 439 kts | 27° |
| 2026-05-07 17:50 | 51.98594 | 46.39666 | 32943 ft | 439 kts | 27° |
| 2026-05-07 17:50 | 52.04020 | 46.44231 | 32942 ft | 439 kts | 27° |
| 2026-05-07 17:51 | 52.08571 | 46.48050 | 32948 ft | 439 kts | 27° |
| 2026-05-07 17:51 | 52.13997 | 46.52617 | 32947 ft | 439 kts | 27° |
| 2026-05-07 17:52 | 52.19383 | 46.57172 | 32950 ft | 439 kts | 27° |
| 2026-05-07 17:52 | 52.24808 | 46.61772 | 32945 ft | 440 kts | 27° |
| 2026-05-07 17:53 | 52.30235 | 46.66396 | 32951 ft | 440 kts | 27° |
| 2026-05-07 17:53 | 52.35654 | 46.71018 | 32950 ft | 440 kts | 27° |
| 2026-05-07 17:54 | 52.41080 | 46.75649 | 32950 ft | 440 kts | 27° |
| 2026-05-07 17:54 | 52.46502 | 46.80293 | 32949 ft | 440 kts | 27° |
| 2026-05-07 17:55 | 52.51930 | 46.84968 | 32956 ft | 441 kts | 27° |
| 2026-05-07 17:55 | 52.57361 | 46.89636 | 32956 ft | 441 kts | 27° |
| 2026-05-07 17:56 | 52.62789 | 46.94325 | 32956 ft | 441 kts | 27° |
| 2026-05-07 17:56 | 52.68209 | 46.99038 | 32962 ft | 441 kts | 27° |
| 2026-05-07 17:57 | 52.72722 | 47.02969 | 32961 ft | 442 kts | 27° |
| 2026-05-07 17:57 | 52.79063 | 47.08493 | 32961 ft | 442 kts | 27° |
| 2026-05-07 17:58 | 52.84494 | 47.13232 | 32961 ft | 442 kts | 27° |
| 2026-05-07 17:58 | 52.89929 | 47.17993 | 32964 ft | 442 kts | 27° |
| 2026-05-07 17:59 | 52.95357 | 47.22770 | 32966 ft | 442 kts | 27° |
| 2026-05-07 17:59 | 53.00781 | 47.27559 | 32966 ft | 441 kts | 28° |
| 2026-05-07 18:00 | 53.06162 | 47.32336 | 32970 ft | 441 kts | 27° |
| 2026-05-07 18:00 | 53.11611 | 47.37179 | 32970 ft | 441 kts | 27° |
| 2026-05-07 18:01 | 53.17031 | 47.41993 | 32969 ft | 442 kts | 27° |
| 2026-05-07 18:01 | 53.22422 | 47.46798 | 32969 ft | 442 kts | 28° |
| 2026-05-07 18:02 | 53.30542 | 47.54070 | 32970 ft | 442 kts | 28° |
| 2026-05-07 18:03 | 53.35957 | 47.58929 | 32975 ft | 442 kts | 28° |
| 2026-05-07 18:03 | 53.41366 | 47.63805 | 32975 ft | 442 kts | 28° |
| 2026-05-07 18:04 | 53.46774 | 47.68700 | 32975 ft | 441 kts | 27° |
| 2026-05-07 18:04 | 53.52425 | 47.72694 | 32975 ft | 441 kts | 21° |
| 2026-05-07 18:05 | 53.58117 | 47.76454 | 32981 ft | 439 kts | 21° |
| 2026-05-07 18:05 | 53.63792 | 47.80224 | 32980 ft | 438 kts | 21° |
| 2026-05-07 18:06 | 53.69467 | 47.83970 | 32979 ft | 438 kts | 19° |
| 2026-05-07 18:06 | 53.75359 | 47.86555 | 32983 ft | 438 kts | 13° |
| 2026-05-07 18:07 | 53.81320 | 47.88979 | 32981 ft | 438 kts | 14° |
| 2026-05-07 18:07 | 53.86952 | 47.92690 | 32980 ft | 438 kts | 24° |
| 2026-05-07 18:08 | 53.92521 | 47.96888 | 32983 ft | 438 kts | 24° |
| 2026-05-07 18:08 | 53.98087 | 48.01088 | 32985 ft | 438 kts | 24° |
| 2026-05-07 18:09 | 54.03641 | 48.05290 | 32983 ft | 437 kts | 24° |
| 2026-05-07 18:09 | 54.09195 | 48.09493 | 32983 ft | 437 kts | 24° |
| 2026-05-07 18:10 | 54.14744 | 48.13710 | 32975 ft | 437 kts | 24° |
| 2026-05-07 18:10 | 54.20289 | 48.17940 | 32975 ft | 437 kts | 24° |
| 2026-05-07 18:11 | 54.25833 | 48.22190 | 32977 ft | 436 kts | 25° |
| 2026-05-07 18:11 | 54.31160 | 48.27173 | 32975 ft | 436 kts | 28° |
| 2026-05-07 18:12 | 54.36492 | 48.32293 | 32973 ft | 436 kts | 28° |
| 2026-05-07 18:12 | 54.41790 | 48.37383 | 32976 ft | 436 kts | 28° |
| 2026-05-07 18:13 | 54.47084 | 48.42499 | 32978 ft | 436 kts | 29° |
| 2026-05-07 18:13 | 54.52369 | 48.47617 | 32977 ft | 436 kts | 28° |
| 2026-05-07 18:14 | 54.57666 | 48.52749 | 32970 ft | 438 kts | 28° |
| 2026-05-07 18:14 | 54.62975 | 48.57913 | 32975 ft | 438 kts | 28° |
| 2026-05-07 18:15 | 54.68290 | 48.63099 | 32333 ft | 439 kts | 28° |
| 2026-05-07 18:15 | 54.70948 | 48.65693 | 31122 ft | 439 kts | 28° |
| 2026-05-07 18:15 | 54.73554 | 48.68243 | 29990 ft | 434 kts | 28° |
| 2026-05-07 18:15 | 54.76252 | 48.70888 | 28657 ft | 447 kts | 29° |
| 2026-05-07 18:16 | 54.78926 | 48.73517 | 27392 ft | 449 kts | 29° |
| 2026-05-07 18:16 | 54.81629 | 48.76184 | 26167 ft | 444 kts | 29° |
| 2026-05-07 18:16 | 54.84295 | 48.78818 | 25010 ft | 438 kts | 29° |
| 2026-05-07 18:16 | 54.86901 | 48.81397 | 24386 ft | 419 kts | 29° |
| 2026-05-07 18:17 | 54.89341 | 48.83820 | 24247 ft | 390 kts | 29° |
| 2026-05-07 18:17 | 54.91617 | 48.86082 | 24127 ft | 364 kts | 29° |
| 2026-05-07 18:17 | 54.93769 | 48.88222 | 24005 ft | 340 kts | 29° |
| 2026-05-07 18:17 | 54.95761 | 48.90204 | 23824 ft | 321 kts | 29° |
| 2026-05-07 18:18 | 54.97671 | 48.92102 | 23325 ft | 313 kts | 29° |
| 2026-05-07 18:18 | 54.99545 | 48.93965 | 22718 ft | 308 kts | 29° |
| 2026-05-07 18:18 | 55.01401 | 48.95817 | 22063 ft | 306 kts | 28° |
| 2026-05-07 18:18 | 55.03213 | 48.97627 | 21454 ft | 303 kts | 28° |
| 2026-05-07 18:19 | 55.05036 | 48.99449 | 20865 ft | 300 kts | 28° |
| 2026-05-07 18:19 | 55.06839 | 49.01254 | 20286 ft | 298 kts | 28° |
| 2026-05-07 18:19 | 55.08629 | 49.03048 | 19726 ft | 295 kts | 28° |
| 2026-05-07 18:19 | 55.10402 | 49.04832 | 19182 ft | 293 kts | 28° |
| 2026-05-07 18:20 | 55.12160 | 49.06603 | 18659 ft | 291 kts | 28° |
| 2026-05-07 18:20 | 55.13905 | 49.08361 | 18117 ft | 288 kts | 27° |
| 2026-05-07 18:20 | 55.15643 | 49.10072 | 17536 ft | 285 kts | 23° |
| 2026-05-07 18:20 | 55.17472 | 49.11334 | 16987 ft | 280 kts | 13° |
| 2026-05-07 18:21 | 55.19360 | 49.12038 | 16446 ft | 276 kts | 7° |
| 2026-05-07 18:21 | 55.21248 | 49.12593 | 15928 ft | 274 kts | 7° |
| 2026-05-07 18:21 | 55.23117 | 49.13151 | 15428 ft | 271 kts | 8° |
| 2026-05-07 18:21 | 55.24970 | 49.13710 | 14938 ft | 269 kts | 8° |
| 2026-05-07 18:22 | 55.26803 | 49.14267 | 14438 ft | 267 kts | 8° |
| 2026-05-07 18:22 | 55.28018 | 49.14466 | 14132 ft | 262 kts | 353° |
| 2026-05-07 18:22 | 55.30233 | 49.13022 | 13456 ft | 255 kts | 326° |
| 2026-05-07 18:22 | 55.31698 | 49.11279 | 12892 ft | 254 kts | 324° |
| 2026-05-07 18:23 | 55.33133 | 49.09481 | 12351 ft | 253 kts | 324° |
| 2026-05-07 18:23 | 55.34552 | 49.07680 | 11826 ft | 251 kts | 324° |
| 2026-05-07 18:23 | 55.35961 | 49.05876 | 11306 ft | 250 kts | 324° |
| 2026-05-07 18:23 | 55.37355 | 49.04075 | 10790 ft | 248 kts | 324° |
| 2026-05-07 18:24 | 55.38739 | 49.02274 | 10280 ft | 247 kts | 324° |
| 2026-05-07 18:24 | 55.40112 | 49.00472 | 9763 ft | 246 kts | 324° |
| 2026-05-07 18:24 | 55.41474 | 48.98673 | 9202 ft | 244 kts | 324° |
| 2026-05-07 18:24 | 55.42817 | 48.96890 | 8978 ft | 242 kts | 324° |
| 2026-05-07 18:25 | 55.44163 | 48.95106 | 8971 ft | 243 kts | 324° |
| 2026-05-07 18:25 | 55.45520 | 48.93311 | 8976 ft | 245 kts | 324° |
| 2026-05-07 18:25 | 55.46881 | 48.91512 | 8974 ft | 244 kts | 324° |
| 2026-05-07 18:25 | 55.48239 | 48.89718 | 8975 ft | 244 kts | 324° |
| 2026-05-07 18:26 | 55.49595 | 48.87924 | 8975 ft | 244 kts | 324° |
| 2026-05-07 18:26 | 55.50942 | 48.86141 | 8969 ft | 238 kts | 324° |
| 2026-05-07 18:26 | 55.52248 | 48.84410 | 8975 ft | 233 kts | 324° |
| 2026-05-07 18:26 | 55.53545 | 48.82691 | 8977 ft | 233 kts | 324° |
| 2026-05-07 18:27 | 55.54837 | 48.80977 | 8977 ft | 233 kts | 324° |
| 2026-05-07 18:27 | 55.56130 | 48.79261 | 8976 ft | 232 kts | 324° |
| 2026-05-07 18:27 | 55.57477 | 48.77704 | 8966 ft | 232 kts | 338° |
| 2026-05-07 18:27 | 55.58537 | 48.77185 | 8607 ft | 239 kts | 356° |
| 2026-05-07 18:28 | 55.60657 | 48.78205 | 8028 ft | 243 kts | 35° |
| 2026-05-07 18:28 | 55.61728 | 48.80400 | 7972 ft | 235 kts | 63° |
| 2026-05-07 18:28 | 55.62175 | 48.83196 | 7977 ft | 238 kts | 77° |
| 2026-05-07 18:28 | 55.62488 | 48.86081 | 7974 ft | 239 kts | 77° |
| 2026-05-07 18:29 | 55.62800 | 48.88970 | 7974 ft | 239 kts | 77° |
| 2026-05-07 18:29 | 55.63212 | 48.91803 | 7973 ft | 236 kts | 60° |
| 2026-05-07 18:29 | 55.64257 | 48.94003 | 7613 ft | 239 kts | 31° |
| 2026-05-07 18:29 | 55.65818 | 48.95006 | 7094 ft | 241 kts | 3° |
| 2026-05-07 18:30 | 55.67429 | 48.94686 | 6972 ft | 228 kts | 340° |
| 2026-05-07 18:30 | 55.68776 | 48.93289 | 6973 ft | 226 kts | 317° |
| 2026-05-07 18:30 | 55.69689 | 48.91033 | 6973 ft | 228 kts | 294° |
| 2026-05-07 18:30 | 55.69993 | 48.88281 | 6976 ft | 230 kts | 269° |
| 2026-05-07 18:31 | 55.69611 | 48.85537 | 6976 ft | 232 kts | 244° |
| 2026-05-07 18:31 | 55.68596 | 48.83304 | 6978 ft | 236 kts | 220° |
| 2026-05-07 18:31 | 55.67270 | 48.81579 | 6978 ft | 237 kts | 216° |
| 2026-05-07 18:31 | 55.65900 | 48.79935 | 6977 ft | 237 kts | 215° |
| 2026-05-07 18:32 | 55.64524 | 48.78314 | 6908 ft | 240 kts | 215° |
| 2026-05-07 18:32 | 55.63094 | 48.76626 | 6281 ft | 253 kts | 215° |
| 2026-05-07 18:32 | 55.62123 | 48.75475 | 6053 ft | 252 kts | 215° |
| 2026-05-07 18:32 | 55.60675 | 48.73873 | 5963 ft | 239 kts | 204° |
| 2026-05-07 18:33 | 55.59073 | 48.73377 | 5973 ft | 236 kts | 174° |
| 2026-05-07 18:33 | 55.57532 | 48.74283 | 5976 ft | 235 kts | 144° |
| 2026-05-07 18:33 | 55.56431 | 48.76376 | 5979 ft | 233 kts | 115° |
| 2026-05-07 18:33 | 55.56040 | 48.79104 | 5976 ft | 230 kts | 86° |
| 2026-05-07 18:34 | 55.56410 | 48.81796 | 5977 ft | 226 kts | 58° |
| 2026-05-07 18:34 | 55.57422 | 48.83862 | 5978 ft | 223 kts | 34° |
| 2026-05-07 18:34 | 55.58684 | 48.85458 | 5977 ft | 223 kts | 32° |
| 2026-05-07 18:34 | 55.59970 | 48.87000 | 5974 ft | 223 kts | 32° |
| 2026-05-07 18:35 | 55.61263 | 48.88530 | 5974 ft | 224 kts | 32° |
| 2026-05-07 18:35 | 55.62555 | 48.90059 | 5975 ft | 224 kts | 32° |
| 2026-05-07 18:35 | 55.63934 | 48.91268 | 5973 ft | 221 kts | 10° |
| 2026-05-07 18:35 | 55.65466 | 48.91152 | 5974 ft | 220 kts | 340° |
| 2026-05-07 18:36 | 55.66715 | 48.89707 | 5974 ft | 221 kts | 310° |
| 2026-05-07 18:36 | 55.67394 | 48.87286 | 5974 ft | 223 kts | 281° |
| 2026-05-07 18:36 | 55.67270 | 48.84552 | 5974 ft | 228 kts | 249° |
| 2026-05-07 18:36 | 55.66338 | 48.82298 | 5974 ft | 232 kts | 217° |
| 2026-05-07 18:37 | 55.64941 | 48.80841 | 5966 ft | 235 kts | 212° |
| 2026-05-07 18:37 | 55.63535 | 48.79240 | 5398 ft | 247 kts | 216° |
| 2026-05-07 18:37 | 55.62100 | 48.77466 | 4743 ft | 258 kts | 216° |
| 2026-05-07 18:37 | 55.60574 | 48.75686 | 4162 ft | 265 kts | 204° |
| 2026-05-07 18:38 | 55.58828 | 48.75051 | 4010 ft | 252 kts | 180° |
| 2026-05-07 18:38 | 55.57169 | 48.75553 | 3999 ft | 234 kts | 158° |
| 2026-05-07 18:38 | 55.55826 | 48.77019 | 4005 ft | 226 kts | 135° |
| 2026-05-07 18:38 | 55.54906 | 48.79231 | 4007 ft | 224 kts | 113° |
| 2026-05-07 18:39 | 55.54518 | 48.81868 | 4008 ft | 223 kts | 91° |
| 2026-05-07 18:39 | 55.54697 | 48.84563 | 4008 ft | 222 kts | 71° |
| 2026-05-07 18:39 | 55.55405 | 48.86954 | 4008 ft | 221 kts | 50° |
| 2026-05-07 18:39 | 55.56547 | 48.88733 | 4007 ft | 220 kts | 29° |
| 2026-05-07 18:40 | 55.57971 | 48.89679 | 4010 ft | 220 kts | 8° |
| 2026-05-07 18:40 | 55.59492 | 48.89941 | 4007 ft | 220 kts | 4° |
| 2026-05-07 18:40 | 55.61015 | 48.90180 | 4007 ft | 220 kts | 5° |
| 2026-05-07 18:40 | 55.62517 | 48.90645 | 4007 ft | 220 kts | 17° |
| 2026-05-07 18:41 | 55.63924 | 48.91695 | 4005 ft | 220 kts | 29° |
| 2026-05-07 18:41 | 55.65204 | 48.93200 | 3935 ft | 222 kts | 34° |
| 2026-05-07 18:41 | 55.66470 | 48.94739 | 3744 ft | 221 kts | 34° |
| 2026-05-07 18:41 | 55.67733 | 48.96285 | 3478 ft | 220 kts | 38° |
| 2026-05-07 18:42 | 55.68752 | 48.98215 | 3358 ft | 210 kts | 58° |
| 2026-05-07 18:42 | 55.69327 | 49.00499 | 3287 ft | 198 kts | 76° |
| 2026-05-07 18:42 | 55.69473 | 49.02871 | 3115 ft | 192 kts | 94° |
| 2026-05-07 18:42 | 55.69215 | 49.05162 | 2919 ft | 189 kts | 111° |
| 2026-05-07 18:43 | 55.68602 | 49.07191 | 2705 ft | 186 kts | 125° |
| 2026-05-07 18:43 | 55.67875 | 49.09075 | 2462 ft | 185 kts | 125° |
| 2026-05-07 18:43 | 55.67157 | 49.10947 | 2225 ft | 182 kts | 125° |
| 2026-05-07 18:43 | 55.66465 | 49.12745 | 1984 ft | 171 kts | 125° |
| 2026-05-07 18:44 | 55.65821 | 49.14420 | 1768 ft | 159 kts | 125° |
| 2026-05-07 18:44 | 55.65229 | 49.15956 | 1587 ft | 144 kts | 124° |
| 2026-05-07 18:44 | 55.64681 | 49.17374 | 1391 ft | 137 kts | 124° |
| 2026-05-07 18:44 | 55.64139 | 49.18769 | 1203 ft | 135 kts | 125° |
| 2026-05-07 18:45 | 55.63615 | 49.20123 | 1065 ft | 135 kts | 124° |
| 2026-05-07 18:45 | 55.63091 | 49.21503 | 930 ft | 135 kts | 123° |
| 2026-05-07 18:45 | 55.62557 | 49.22899 | 749 ft | 135 kts | 124° |
| 2026-05-07 18:45 | 55.62022 | 49.24271 | 568 ft | 135 kts | 124° |
| 2026-05-07 18:46 | 55.61474 | 49.25689 | 415 ft | 128 kts | 124° |
| 2026-05-07 18:46 | 55.61037 | 49.26817 | 414 ft | 96 kts | 124° |
| 2026-05-07 18:46 | 55.60740 | 49.27581 | 417 ft | 66 kts | 124° |
| 2026-05-07 18:46 | 55.60496 | 49.28211 | 412 ft | 59 kts | 124° |
| 2026-05-07 18:47 | 55.60389 | 49.28579 | 415 ft | 10 kts | 64° |
| 2026-05-07 18:47 | 55.60448 | 49.28647 | 417 ft | 16 kts | 33° |
| 2026-05-07 18:47 | 55.60466 | 49.28668 | 416 ft | 0 kts | 34° |
| 2026-05-07 18:48 | 55.60467 | 49.28670 | 416 ft | 2 kts | 34° |
| 2026-05-07 18:48 | 55.60518 | 49.28784 | 416 ft | 17 kts | 91° |
| 2026-05-07 18:49 | 55.60455 | 49.28968 | 416 ft | 19 kts | 124° |
| 2026-05-07 18:49 | 55.60358 | 49.29218 | 416 ft | 31 kts | 124° |
| 2026-05-07 18:49 | 55.60234 | 49.29537 | 412 ft | 31 kts | 124° |
| 2026-05-07 18:49 | 55.60127 | 49.29810 | 416 ft | 22 kts | 124° |
| 2026-05-07 18:50 | 55.60161 | 49.29961 | 410 ft | 14 kts | 4° |
| 2026-05-07 18:50 | 55.60238 | 49.29905 | 416 ft | 11 kts | 327° |
| 2026-05-07 18:50 | 55.60308 | 49.29879 | 416 ft | 10 kts | 6° |
| 2026-05-07 18:50 | 55.60369 | 49.29905 | 408 ft | 8 kts | 18° |
| 2026-05-07 18:51 | 55.60417 | 49.29948 | 416 ft | 7 kts | 31° |
| 2026-05-07 18:51 | 55.60467 | 49.30011 | 416 ft | 16 kts | 36° |
| 2026-05-07 18:51 | 55.60573 | 49.30080 | 411 ft | 14 kts | 338° |
| 2026-05-07 18:51 | 55.60627 | 49.29959 | 411 ft | 12 kts | 304° |
| 2026-05-07 18:52 | 55.60676 | 49.29853 | 416 ft | 10 kts | 331° |
| 2026-05-07 18:52 | 55.60724 | 49.29877 | 416 ft | 5 kts | 33° |
| 2026-05-07 18:52 | 55.60731 | 49.29884 | 416 ft | 0 kts | 33° |